createdAt,value
2022-08-20T00:00:48.215Z,52.60
2022-08-20T00:01:48.251Z,51.60
2022-08-20T00:02:48.188Z,50.90
2022-08-20T00:03:53.331Z,56.40
2022-08-20T00:04:49.147Z,55.80
2022-08-20T00:05:48.158Z,56.90
2022-08-20T00:06:48.125Z,51.90
2022-08-20T00:07:48.129Z,71.90
2022-08-20T00:08:48.139Z,47.90
2022-08-20T00:09:48.087Z,57.30
2022-08-20T00:10:49.753Z,78.30
2022-08-20T00:11:49.057Z,67.00
2022-08-20T00:12:48.048Z,62.70
2022-08-20T00:13:48.051Z,56.20
2022-08-20T00:14:48.020Z,62.60
2022-08-20T00:15:48.029Z,66.00
2022-08-20T00:16:48.003Z,70.00
2022-08-20T00:17:47.979Z,78.70
2022-08-20T00:18:47.984Z,90.90
2022-08-20T00:19:48.060Z,96.60
2022-08-20T00:20:47.940Z,93.00
2022-08-20T00:21:47.943Z,75.20
2022-08-20T00:22:47.911Z,83.10
2022-08-20T00:23:47.915Z,75.70
2022-08-20T00:24:47.897Z,79.40
2022-08-20T00:25:47.992Z,194.90
2022-08-20T00:26:51.979Z,90.30
2022-08-20T00:27:47.865Z,117.40
2022-08-20T00:28:47.851Z,81.70
2022-08-20T00:29:47.826Z,62.20
2022-08-20T00:30:47.821Z,70.80
2022-08-20T00:31:47.795Z,73.70
2022-08-20T00:32:47.775Z,77.50
2022-08-20T00:33:47.781Z,60.80
2022-08-20T00:34:47.747Z,139.10
2022-08-20T00:35:47.760Z,84.80
2022-08-20T00:36:47.852Z,101.60
2022-08-20T00:37:47.716Z,101.10
2022-08-20T00:38:47.711Z,113.60
2022-08-20T00:39:47.724Z,78.50
2022-08-20T00:40:47.677Z,92.00
2022-08-20T00:41:47.682Z,94.90
2022-08-20T00:42:47.702Z,93.30
2022-08-20T00:43:47.639Z,87.30
2022-08-20T00:44:47.619Z,76.30
2022-08-20T00:45:47.632Z,88.00
2022-08-20T00:46:47.598Z,108.60
2022-08-20T00:47:51.651Z,82.10
2022-08-20T00:48:47.606Z,104.90
2022-08-20T00:49:47.562Z,88.10
2022-08-20T00:50:47.556Z,105.10
2022-08-20T00:51:47.531Z,110.60
2022-08-20T00:52:49.796Z,76.80
2022-08-20T00:53:47.525Z,89.50
2022-08-20T00:54:47.623Z,83.30
2022-08-20T00:55:47.497Z,82.60
2022-08-20T00:56:47.479Z,85.50
2022-08-20T00:57:59.148Z,99.50
2022-08-20T00:58:48.436Z,94.90
2022-08-20T00:59:47.452Z,77.70
2022-08-20T01:00:47.429Z,79.80
2022-08-20T01:01:55.229Z,86.00
2022-08-20T01:02:48.399Z,162.00
2022-08-20T01:03:47.377Z,82.20
2022-08-20T01:04:47.359Z,84.40
2022-08-20T01:05:47.369Z,108.50
2022-08-20T01:06:47.337Z,133.90
2022-08-20T01:07:47.340Z,95.30
2022-08-20T01:08:47.322Z,109.40
2022-08-20T01:09:57.896Z,109.50
2022-08-20T01:10:48.294Z,86.50
2022-08-20T01:11:47.271Z,115.80
2022-08-20T01:12:47.251Z,99.50
2022-08-20T01:13:47.264Z,139.90
2022-08-20T01:14:47.231Z,89.00
2022-08-20T01:15:47.264Z,93.20
2022-08-20T01:16:47.217Z,87.90
2022-08-20T01:17:47.193Z,90.10
2022-08-20T01:18:47.199Z,81.60
2022-08-20T01:19:47.170Z,84.70
2022-08-20T01:20:47.153Z,78.10
2022-08-20T01:21:49.886Z,64.90
2022-08-20T01:22:47.131Z,72.30
2022-08-20T01:23:47.128Z,73.60
2022-08-20T01:24:47.111Z,74.20
2022-08-20T01:25:47.086Z,74.90
2022-08-20T01:26:47.087Z,68.20
2022-08-20T01:27:47.090Z,73.50
2022-08-20T01:28:48.047Z,74.00
2022-08-20T01:29:47.051Z,79.10
2022-08-20T01:30:47.032Z,70.30
2022-08-20T01:31:47.008Z,63.70
2022-08-20T01:32:46.989Z,91.10
2022-08-20T01:33:47.002Z,75.90
2022-08-20T01:34:46.959Z,74.00
2022-08-20T01:35:46.973Z,100.80
2022-08-20T01:36:46.954Z,78.70
2022-08-20T01:37:46.930Z,76.70
2022-08-20T01:38:54.315Z,86.20
2022-08-20T01:39:47.961Z,74.00
2022-08-20T01:40:46.892Z,89.70
2022-08-20T01:41:46.895Z,85.90
2022-08-20T01:42:58.674Z,86.90
2022-08-20T01:43:47.897Z,101.30
2022-08-20T01:44:46.848Z,93.90
2022-08-20T01:45:46.823Z,132.00
2022-08-20T01:46:46.813Z,110.80
2022-08-20T01:47:46.818Z,110.00
2022-08-20T01:48:46.798Z,98.40
2022-08-20T01:49:46.804Z,101.40
2022-08-20T01:50:46.769Z,84.00
2022-08-20T01:51:46.746Z,115.70
2022-08-20T01:52:46.734Z,108.60
2022-08-20T01:53:46.741Z,87.60
2022-08-20T01:54:46.706Z,88.70
2022-08-20T01:55:46.752Z,107.70
2022-08-20T01:56:46.691Z,90.10
2022-08-20T01:57:46.668Z,83.20
2022-08-20T01:58:46.670Z,95.60
2022-08-20T01:59:46.648Z,96.70
2022-08-20T02:00:46.629Z,88.40
2022-08-20T02:01:47.212Z,109.80
2022-08-20T02:02:46.613Z,101.00
2022-08-20T02:03:46.591Z,99.20
2022-08-20T02:04:46.572Z,95.50
2022-08-20T02:05:46.576Z,109.90
2022-08-20T02:06:56.253Z,91.10
2022-08-20T02:07:47.556Z,118.10
2022-08-20T02:08:46.538Z,145.50
2022-08-20T02:09:46.512Z,123.60
2022-08-20T02:10:46.509Z,98.30
2022-08-20T02:11:46.483Z,118.70
2022-08-20T02:12:46.473Z,104.10
2022-08-20T02:13:46.478Z,92.60
2022-08-20T02:14:46.447Z,122.20
2022-08-20T02:15:46.449Z,120.10
2022-08-20T02:16:52.392Z,87.10
2022-08-20T02:17:47.515Z,77.00
2022-08-20T02:18:46.400Z,97.30
2022-08-20T02:19:46.377Z,93.90
2022-08-20T02:20:46.366Z,97.70
2022-08-20T02:21:46.374Z,116.50
2022-08-20T02:22:50.419Z,118.30
2022-08-20T02:23:46.349Z,107.80
2022-08-20T02:24:46.322Z,112.40
2022-08-20T02:25:46.300Z,94.50
2022-08-20T02:26:46.294Z,98.80
2022-08-20T02:27:46.336Z,82.30
2022-08-20T02:28:46.259Z,71.60
2022-08-20T02:29:46.264Z,101.20
2022-08-20T02:30:46.230Z,82.50
2022-08-20T02:32:24.928Z,76.80
2022-08-20T02:32:47.217Z,90.50
2022-08-20T02:34:14.800Z,91.40
2022-08-20T02:34:47.180Z,90.20
2022-08-20T02:35:46.185Z,98.00
2022-08-20T02:36:46.167Z,105.50
2022-08-20T02:37:46.143Z,74.70
2022-08-20T02:38:46.249Z,86.10
2022-08-20T02:39:46.147Z,83.50
2022-08-20T02:40:46.095Z,74.00
2022-08-20T02:41:46.106Z,84.80
2022-08-20T02:42:46.074Z,90.00
2022-08-20T02:43:46.078Z,78.90
2022-08-20T02:44:46.090Z,81.90
2022-08-20T02:45:46.037Z,70.40
2022-08-20T02:46:46.031Z,78.80
2022-08-20T02:47:46.007Z,74.30
2022-08-20T02:48:45.995Z,88.70
2022-08-20T02:49:46.000Z,72.00
2022-08-20T02:50:45.983Z,75.10
2022-08-20T02:51:45.960Z,78.60
2022-08-20T02:52:51.618Z,80.90
2022-08-20T02:53:46.944Z,83.90
2022-08-20T02:54:45.910Z,75.70
2022-08-20T02:55:45.953Z,80.60
2022-08-20T02:56:45.903Z,72.30
2022-08-20T02:57:45.878Z,80.40
2022-08-20T02:58:46.875Z,74.20
2022-08-20T02:59:45.853Z,71.30
2022-08-20T03:00:45.832Z,74.20
2022-08-20T03:01:45.877Z,77.00
2022-08-20T03:02:45.803Z,75.50
2022-08-20T03:03:45.815Z,93.70
2022-08-20T03:04:45.803Z,84.70
2022-08-20T03:05:45.781Z,73.80
2022-08-20T03:06:45.755Z,74.20
2022-08-20T03:07:45.888Z,72.30
2022-08-20T03:08:45.742Z,70.90
2022-08-20T03:09:45.715Z,64.70
2022-08-20T03:10:45.710Z,70.70
2022-08-20T03:11:45.694Z,75.70
2022-08-20T03:12:45.676Z,91.50
2022-08-20T03:13:45.681Z,75.40
2022-08-20T03:14:45.647Z,75.40
2022-08-20T03:15:45.651Z,80.40
2022-08-20T03:16:45.632Z,62.20
2022-08-20T03:17:45.608Z,66.50
2022-08-20T03:18:45.641Z,85.70
2022-08-20T03:19:45.588Z,87.00
2022-08-20T03:20:45.974Z,73.80
2022-08-20T03:21:45.575Z,71.90
2022-08-20T03:22:45.564Z,83.70
2022-08-20T03:23:45.530Z,80.10
2022-08-20T03:24:45.551Z,81.00
2022-08-20T03:25:45.515Z,107.30
2022-08-20T03:26:45.493Z,75.70
2022-08-20T03:27:45.486Z,91.60
2022-08-20T03:28:45.484Z,99.30
2022-08-20T03:29:45.444Z,92.60
2022-08-20T03:30:45.457Z,106.80
2022-08-20T03:31:45.424Z,90.40
2022-08-20T03:32:45.414Z,89.70
2022-08-20T03:33:53.011Z,105.70
2022-08-20T03:34:46.385Z,112.80
2022-08-20T03:35:45.409Z,118.00
2022-08-20T03:36:45.378Z,116.70
2022-08-20T03:37:45.755Z,117.00
2022-08-20T03:38:45.337Z,105.80
2022-08-20T03:39:45.360Z,127.40
2022-08-20T03:40:45.322Z,127.50
2022-08-20T03:41:45.318Z,161.00
2022-08-20T03:42:45.302Z,117.20
2022-08-20T03:43:45.268Z,125.10
2022-08-20T03:44:45.261Z,102.90
2022-08-20T03:45:45.252Z,112.20
2022-08-20T03:46:45.231Z,145.80
2022-08-20T03:47:45.248Z,129.30
2022-08-20T03:48:45.215Z,144.60
2022-08-20T03:49:45.181Z,146.00
2022-08-20T03:50:45.194Z,133.80
2022-08-20T03:51:57.984Z,122.90
2022-08-20T03:52:46.172Z,115.30
2022-08-20T03:53:45.149Z,117.70
2022-08-20T03:54:45.136Z,110.90
2022-08-20T03:55:45.389Z,106.20
2022-08-20T03:56:46.101Z,104.10
2022-08-20T03:57:45.088Z,141.70
2022-08-20T03:58:45.072Z,135.80
2022-08-20T03:59:45.059Z,106.30
2022-08-20T04:00:45.056Z,123.20
2022-08-20T04:01:46.728Z,113.40
2022-08-20T04:02:45.028Z,152.20
2022-08-20T04:03:45.001Z,154.10
2022-08-20T04:04:44.987Z,156.60
2022-08-20T04:05:44.981Z,135.80
2022-08-20T04:06:44.967Z,167.30
2022-08-20T04:07:44.952Z,149.00
2022-08-20T04:08:44.951Z,125.40
2022-08-20T04:09:44.918Z,130.80
2022-08-20T04:10:44.910Z,119.30
2022-08-20T04:11:44.903Z,160.90
2022-08-20T04:12:52.750Z,126.60
2022-08-20T04:13:45.861Z,195.10
2022-08-20T04:14:44.864Z,151.70
2022-08-20T04:15:44.832Z,144.10
2022-08-20T04:16:44.823Z,129.60
2022-08-20T04:17:44.823Z,137.10
2022-08-20T04:19:01.730Z,138.10
2022-08-20T04:19:45.795Z,133.90
2022-08-20T04:20:44.786Z,137.30
2022-08-20T04:21:44.754Z,104.30
2022-08-20T04:22:44.768Z,117.30
2022-08-20T04:23:45.765Z,151.20
2022-08-20T04:24:44.716Z,179.40
2022-08-20T04:25:44.717Z,229.30
2022-08-20T04:26:44.693Z,101.50
2022-08-20T04:27:44.687Z,101.50
2022-08-20T04:28:44.679Z,110.30
2022-08-20T04:29:44.675Z,101.90
2022-08-20T04:30:51.628Z,100.50
2022-08-20T04:31:45.619Z,104.90
2022-08-20T04:32:44.610Z,111.20
2022-08-20T04:33:44.610Z,116.90
2022-08-20T04:34:44.581Z,118.20
2022-08-20T04:35:44.580Z,122.60
2022-08-20T04:36:44.572Z,136.70
2022-08-20T04:37:44.530Z,134.80
2022-08-20T04:38:49.793Z,182.90
2022-08-20T04:39:45.565Z,197.00
2022-08-20T04:40:44.620Z,230.80
2022-08-20T04:41:44.496Z,172.40
2022-08-20T04:42:44.485Z,209.10
2022-08-20T04:43:44.452Z,190.10
2022-08-20T04:44:44.452Z,155.50
2022-08-20T04:45:44.449Z,152.30
2022-08-20T04:46:44.429Z,160.10
2022-08-20T04:47:44.417Z,191.80
2022-08-20T04:48:49.180Z,165.60
2022-08-20T04:49:45.374Z,194.40
2022-08-20T04:50:44.380Z,202.60
2022-08-20T04:51:44.355Z,229.10
2022-08-20T04:52:44.336Z,201.50
2022-08-20T04:53:44.330Z,193.30
2022-08-20T04:54:45.316Z,202.70
2022-08-20T04:55:44.310Z,266.50
2022-08-20T04:56:44.321Z,212.10
2022-08-20T04:57:44.267Z,220.10
2022-08-20T04:58:44.257Z,244.10
2022-08-20T04:59:44.260Z,211.80
2022-08-20T05:00:44.251Z,223.60
2022-08-20T05:01:44.220Z,228.90
2022-08-20T05:02:44.251Z,222.50
2022-08-20T05:03:44.190Z,207.60
2022-08-20T05:04:44.180Z,269.20
2022-08-20T05:06:19.844Z,221.00
2022-08-20T05:06:44.151Z,216.40
2022-08-20T05:07:44.131Z,206.60
2022-08-20T05:08:44.164Z,250.00
2022-08-20T05:09:44.332Z,261.60
2022-08-20T05:10:44.113Z,220.80
2022-08-20T05:11:44.094Z,250.20
2022-08-20T05:12:44.071Z,197.10
2022-08-20T05:13:45.083Z,253.10
2022-08-20T05:14:44.057Z,226.90
2022-08-20T05:15:44.038Z,276.10
2022-08-20T05:16:44.016Z,281.40
2022-08-20T05:17:44.008Z,248.00
2022-08-20T05:18:43.992Z,334.40
2022-08-20T05:19:43.975Z,244.20
2022-08-20T05:20:43.978Z,257.30
2022-08-20T05:21:43.946Z,244.10
2022-08-20T05:22:43.952Z,231.90
2022-08-20T05:23:43.931Z,248.60
2022-08-20T05:24:43.946Z,285.90
2022-08-20T05:25:43.904Z,305.90
2022-08-20T05:26:43.878Z,219.90
2022-08-20T05:27:47.745Z,262.50
2022-08-20T05:28:57.822Z,285.80
2022-08-20T05:29:44.869Z,247.30
2022-08-20T05:30:43.843Z,366.70
2022-08-20T05:31:43.823Z,360.30
2022-08-20T05:32:44.660Z,272.70
2022-08-20T05:33:43.802Z,358.40
2022-08-20T05:34:43.771Z,324.80
2022-08-20T05:35:43.892Z,333.60
2022-08-20T05:36:43.764Z,394.30
2022-08-20T05:37:43.722Z,296.60
2022-08-20T05:38:43.736Z,351.20
2022-08-20T05:39:44.737Z,286.60
2022-08-20T05:40:43.693Z,267.90
2022-08-20T05:41:43.688Z,306.90
2022-08-20T05:42:43.664Z,274.50
2022-08-20T05:43:43.645Z,293.00
2022-08-20T05:44:43.657Z,322.70
2022-08-20T05:45:43.639Z,342.30
2022-08-20T05:46:43.750Z,336.90
2022-08-20T05:47:43.596Z,272.40
2022-08-20T05:48:43.599Z,325.10
2022-08-20T05:49:43.566Z,303.20
2022-08-20T05:50:43.571Z,344.40
2022-08-20T05:51:43.553Z,342.30
2022-08-20T05:52:43.568Z,313.90
2022-08-20T05:53:43.531Z,350.30
2022-08-20T05:54:43.499Z,378.50
2022-08-20T05:55:43.488Z,400.70
2022-08-20T05:56:43.494Z,416.80
2022-08-20T05:57:43.461Z,370.50
2022-08-20T05:58:43.493Z,413.00
2022-08-20T05:59:43.445Z,438.80
2022-08-20T06:00:43.420Z,301.40
2022-08-20T06:01:43.418Z,396.30
2022-08-20T06:02:43.413Z,344.70
2022-08-20T06:03:43.395Z,344.00
2022-08-20T06:04:43.373Z,403.20
2022-08-20T06:05:43.365Z,273.50
2022-08-20T06:06:45.834Z,326.20
2022-08-20T06:07:43.323Z,368.50
2022-08-20T06:08:43.337Z,355.90
2022-08-20T06:09:44.532Z,353.60
2022-08-20T06:10:43.374Z,371.80
2022-08-20T06:11:43.287Z,409.40
2022-08-20T06:12:43.265Z,381.70
2022-08-20T06:13:43.259Z,426.40
2022-08-20T06:14:43.271Z,390.30
2022-08-20T06:15:43.215Z,400.10
2022-08-20T06:16:57.169Z,331.60
2022-08-20T06:17:44.209Z,386.60
2022-08-20T06:18:43.187Z,346.10
2022-08-20T06:19:44.452Z,382.20
2022-08-20T06:20:43.308Z,337.50
2022-08-20T06:21:43.138Z,380.10
2022-08-20T06:22:43.151Z,408.60
2022-08-20T06:23:54.381Z,361.90
2022-08-20T06:24:44.100Z,445.00
2022-08-20T06:25:43.103Z,355.40
2022-08-20T06:26:43.121Z,310.30
2022-08-20T06:27:43.061Z,396.20
2022-08-20T06:28:43.074Z,371.50
2022-08-20T06:29:43.032Z,332.50
2022-08-20T06:30:43.036Z,345.40
2022-08-20T06:31:43.023Z,332.60
2022-08-20T06:32:43.003Z,412.90
2022-08-20T06:33:42.998Z,415.50
2022-08-20T06:34:50.555Z,368.40
2022-08-20T06:35:43.953Z,408.30
2022-08-20T06:36:42.958Z,352.90
2022-08-20T06:37:42.935Z,379.90
2022-08-20T06:38:42.939Z,349.00
2022-08-20T06:39:42.941Z,416.20
2022-08-20T06:40:42.896Z,356.60
2022-08-20T06:41:42.892Z,410.60
2022-08-20T06:42:47.793Z,380.80
2022-08-20T06:43:43.847Z,430.60
2022-08-20T06:44:42.859Z,501.50
2022-08-20T06:45:42.818Z,379.10
2022-08-20T06:46:42.833Z,414.70
2022-08-20T06:47:42.812Z,513.30
2022-08-20T06:48:42.909Z,414.60
2022-08-20T06:49:42.769Z,427.20
2022-08-20T06:50:47.613Z,395.10
2022-08-20T06:51:43.753Z,370.80
2022-08-20T06:52:52.681Z,351.40
2022-08-20T06:53:43.754Z,418.40
2022-08-20T06:54:42.708Z,428.00
2022-08-20T06:55:42.692Z,374.70
2022-08-20T06:56:43.697Z,409.00
2022-08-20T06:57:42.663Z,445.00
2022-08-20T06:58:42.671Z,359.10
2022-08-20T06:59:42.654Z,386.40
2022-08-20T07:00:42.681Z,378.10
2022-08-20T07:01:42.640Z,410.00
2022-08-20T07:02:42.605Z,200.40
2022-08-20T07:03:54.386Z,150.50
2022-08-20T07:04:43.618Z,137.80
2022-08-20T07:05:42.577Z,140.10
2022-08-20T07:06:42.546Z,163.20
2022-08-20T07:07:42.533Z,212.10
2022-08-20T07:08:42.538Z,254.60
2022-08-20T07:09:42.505Z,158.20
2022-08-20T07:10:42.541Z,133.40
2022-08-20T07:11:42.491Z,136.20
2022-08-20T07:12:42.475Z,154.40
2022-08-20T07:13:42.463Z,138.10
2022-08-20T07:14:42.748Z,128.30
2022-08-20T07:15:42.431Z,164.20
2022-08-20T07:16:42.433Z,140.90
2022-08-20T07:17:42.401Z,153.20
2022-08-20T07:18:42.405Z,151.50
2022-08-20T07:19:42.384Z,148.40
2022-08-20T07:20:42.361Z,156.60
2022-08-20T07:21:42.383Z,143.40
2022-08-20T07:22:42.355Z,163.30
2022-08-20T07:23:42.335Z,174.30
2022-08-20T07:24:45.957Z,139.70
2022-08-20T07:25:43.307Z,144.20
2022-08-20T07:26:42.282Z,178.90
2022-08-20T07:27:42.294Z,176.40
2022-08-20T07:28:42.268Z,157.00
2022-08-20T07:29:42.237Z,162.10
2022-08-20T07:30:55.966Z,154.90
2022-08-20T07:31:43.230Z,250.20
2022-08-20T07:32:45.288Z,152.90
2022-08-20T07:33:44.594Z,126.30
2022-08-20T07:34:43.643Z,228.70
2022-08-20T07:35:42.165Z,144.10
2022-08-20T07:36:42.170Z,160.80
2022-08-20T07:37:42.153Z,273.20
2022-08-20T07:38:42.119Z,168.90
2022-08-20T07:39:42.168Z,174.40
2022-08-20T07:40:42.111Z,153.80
2022-08-20T07:41:42.081Z,158.30
2022-08-20T07:42:42.080Z,136.60
2022-08-20T07:43:42.082Z,115.40
2022-08-20T07:44:42.161Z,128.80
2022-08-20T07:45:42.044Z,161.60
2022-08-20T07:46:43.011Z,175.40
2022-08-20T07:47:42.002Z,124.70
2022-08-20T07:48:42.037Z,121.70
2022-08-20T07:49:41.972Z,116.50
2022-08-20T07:50:43.115Z,146.20
2022-08-20T07:51:41.966Z,124.40
2022-08-20T07:52:41.933Z,113.40
2022-08-20T07:53:41.923Z,113.80
2022-08-20T07:54:41.928Z,122.30
2022-08-20T07:55:41.938Z,112.20
2022-08-20T07:56:42.887Z,156.20
2022-08-20T07:57:41.892Z,106.40
2022-08-20T07:58:41.856Z,107.90
2022-08-20T07:59:41.846Z,146.90
2022-08-20T08:00:41.903Z,108.00
2022-08-20T08:01:41.837Z,113.90
2022-08-20T08:02:41.823Z,90.00
2022-08-20T08:03:49.723Z,103.70
2022-08-20T08:04:42.787Z,159.60
2022-08-20T08:05:41.781Z,132.90
2022-08-20T08:06:41.769Z,99.60
2022-08-20T08:07:43.099Z,102.60
2022-08-20T08:08:41.742Z,119.30
2022-08-20T08:09:41.738Z,87.00
2022-08-20T08:10:41.700Z,85.30
2022-08-20T08:11:46.488Z,101.90
2022-08-20T08:12:42.685Z,74.80
2022-08-20T08:13:41.662Z,104.30
2022-08-20T08:14:41.663Z,80.70
2022-08-20T08:15:41.655Z,89.90
2022-08-20T08:16:41.622Z,73.10
2022-08-20T08:17:41.626Z,115.00
2022-08-20T08:18:41.596Z,137.30
2022-08-20T08:19:41.591Z,75.80
2022-08-20T08:20:46.680Z,71.70
2022-08-20T08:21:42.563Z,74.90
2022-08-20T08:22:41.586Z,84.40
2022-08-20T08:23:41.552Z,65.70
2022-08-20T08:24:41.517Z,93.80
2022-08-20T08:25:42.508Z,88.60
2022-08-20T08:26:41.500Z,65.80
2022-08-20T08:27:41.491Z,62.30
2022-08-20T08:28:41.499Z,76.90
2022-08-20T08:29:41.469Z,71.70
2022-08-20T08:30:41.435Z,62.70
2022-08-20T08:31:41.428Z,70.60
2022-08-20T08:32:41.421Z,101.30
2022-08-20T08:33:41.401Z,53.80
2022-08-20T08:34:41.393Z,56.90
2022-08-20T08:35:41.413Z,65.70
2022-08-20T08:36:41.352Z,60.20
2022-08-20T08:37:41.365Z,53.10
2022-08-20T08:38:41.331Z,54.30
2022-08-20T08:39:41.390Z,111.20
2022-08-20T08:40:41.315Z,57.50
2022-08-20T08:41:41.292Z,54.50
2022-08-20T08:42:43.210Z,121.00
2022-08-20T08:43:41.280Z,63.80
2022-08-20T08:44:41.244Z,104.50
2022-08-20T08:45:41.286Z,66.30
2022-08-20T08:46:41.215Z,82.40
2022-08-20T08:47:41.213Z,72.20
2022-08-20T08:48:41.211Z,62.40
2022-08-20T08:49:41.193Z,86.50
2022-08-20T08:50:53.191Z,79.30
2022-08-20T08:51:42.285Z,65.20
2022-08-20T08:52:41.137Z,81.20
2022-08-20T08:53:41.144Z,68.70
2022-08-20T08:54:41.107Z,131.80
2022-08-20T08:55:41.106Z,66.90
2022-08-20T08:56:41.106Z,57.50
2022-08-20T08:57:41.093Z,162.70
2022-08-20T08:58:41.059Z,61.30
2022-08-20T08:59:52.458Z,67.30
2022-08-20T09:00:42.046Z,56.60
2022-08-20T09:01:54.504Z,60.70
2022-08-20T09:02:42.069Z,100.00
2022-08-20T09:03:41.008Z,112.40
2022-08-20T09:04:40.972Z,99.50
2022-08-20T09:05:40.985Z,68.10
2022-08-20T09:06:40.944Z,65.60
2022-08-20T09:07:40.943Z,56.50
2022-08-20T09:08:40.941Z,45.40
2022-08-20T09:09:40.917Z,47.00
2022-08-20T09:10:40.914Z,52.00
2022-08-20T09:11:40.907Z,60.90
2022-08-20T09:12:43.389Z,47.80
2022-08-20T09:13:41.856Z,66.00
2022-08-20T09:14:40.849Z,41.60
2022-08-20T09:15:40.909Z,47.90
2022-08-20T09:16:52.438Z,53.10
2022-08-20T09:17:41.932Z,41.80
2022-08-20T09:18:40.787Z,69.40
2022-08-20T09:19:40.783Z,56.20
2022-08-20T09:20:40.783Z,55.90
2022-08-20T09:21:40.759Z,40.50
2022-08-20T09:22:40.750Z,108.30
2022-08-20T09:23:40.770Z,77.60
2022-08-20T09:24:40.709Z,40.20
2022-08-20T09:25:40.722Z,35.20
2022-08-20T09:26:40.688Z,110.30
2022-08-20T09:27:41.445Z,114.50
2022-08-20T09:28:40.678Z,56.50
2022-08-20T09:29:40.694Z,35.90
2022-08-20T09:30:40.631Z,43.20
2022-08-20T09:31:40.648Z,52.00
2022-08-20T09:32:40.619Z,65.60
2022-08-20T09:33:40.594Z,76.80
2022-08-20T09:34:40.588Z,45.40
2022-08-20T09:35:40.599Z,34.50
2022-08-20T09:36:40.562Z,42.00
2022-08-20T09:37:40.558Z,37.10
2022-08-20T09:38:40.525Z,91.00
2022-08-20T09:39:40.556Z,60.80
2022-08-20T09:40:40.555Z,47.10
2022-08-20T09:41:40.495Z,72.10
2022-08-20T09:42:41.825Z,57.00
2022-08-20T09:43:40.481Z,106.70
2022-08-20T09:44:40.448Z,34.40
2022-08-20T09:45:40.452Z,78.90
2022-08-20T09:46:40.448Z,33.90
2022-08-20T09:47:48.725Z,48.70
2022-08-20T09:48:41.410Z,47.50
2022-08-20T09:49:40.393Z,56.40
2022-08-20T09:50:40.384Z,118.10
2022-08-20T09:51:40.384Z,31.40
2022-08-20T09:52:40.899Z,59.80
2022-08-20T09:53:40.356Z,43.30
2022-08-20T09:54:46.475Z,68.90
2022-08-20T09:55:41.313Z,42.10
2022-08-20T09:56:40.305Z,68.60
2022-08-20T09:57:40.283Z,64.20
2022-08-20T09:58:40.277Z,84.90
2022-08-20T09:59:40.268Z,91.80
2022-08-20T10:00:40.237Z,82.70
2022-08-20T10:01:40.248Z,64.70
2022-08-20T10:02:40.228Z,70.10
2022-08-20T10:03:41.865Z,83.40
2022-08-20T10:04:40.187Z,45.20
2022-08-20T10:05:40.190Z,154.20
2022-08-20T10:06:40.158Z,45.40
2022-08-20T10:07:40.149Z,127.60
2022-08-20T10:08:40.153Z,104.60
2022-08-20T10:09:40.153Z,123.00
2022-08-20T10:10:40.129Z,71.90
2022-08-20T10:11:40.118Z,63.50
2022-08-20T10:12:40.080Z,57.90
2022-08-20T10:13:40.090Z,50.70
2022-08-20T10:14:40.060Z,99.60
2022-08-20T10:15:40.364Z,75.30
2022-08-20T10:16:40.044Z,66.60
2022-08-20T10:17:40.027Z,52.40
2022-08-20T10:18:40.000Z,56.50
2022-08-20T10:19:39.993Z,101.50
2022-08-20T10:20:39.989Z,92.60
2022-08-20T10:21:39.968Z,54.40
2022-08-20T10:22:39.958Z,89.10
2022-08-20T10:23:39.959Z,86.30
2022-08-20T10:24:39.915Z,56.50
2022-08-20T10:25:39.959Z,125.00
2022-08-20T10:26:39.899Z,68.30
2022-08-20T10:27:39.884Z,173.40
2022-08-20T10:28:39.885Z,61.50
2022-08-20T10:29:43.032Z,72.80
2022-08-20T10:30:40.881Z,211.70
2022-08-20T10:31:39.877Z,146.40
2022-08-20T10:32:39.808Z,104.60
2022-08-20T10:33:39.806Z,69.10
2022-08-20T10:34:39.802Z,78.70
2022-08-20T10:35:39.793Z,30.10
2022-08-20T10:36:39.793Z,47.40
2022-08-20T10:37:39.764Z,39.60
2022-08-20T10:38:39.734Z,89.50
2022-08-20T10:39:39.781Z,52.00
2022-08-20T10:40:39.724Z,43.80
2022-08-20T10:41:39.700Z,37.50
2022-08-20T10:42:42.634Z,82.90
2022-08-20T10:43:39.700Z,176.70
2022-08-20T10:44:39.653Z,199.20
2022-08-20T10:45:40.375Z,142.50
2022-08-20T10:46:39.626Z,120.60
2022-08-20T10:47:39.624Z,45.90
2022-08-20T10:48:39.618Z,56.80
2022-08-20T10:49:39.595Z,73.70
2022-08-20T10:50:39.590Z,131.50
2022-08-20T10:51:39.582Z,128.10
2022-08-20T10:52:39.656Z,198.30
2022-08-20T10:53:39.667Z,59.30
2022-08-20T10:54:39.527Z,129.50
2022-08-20T10:55:39.521Z,124.70
2022-08-20T10:56:39.513Z,175.80
2022-08-20T10:57:39.488Z,37.00
2022-08-20T10:58:40.060Z,90.70
2022-08-20T10:59:39.475Z,62.10
2022-08-20T11:00:39.451Z,49.70
2022-08-20T11:01:39.533Z,92.20
2022-08-20T11:02:39.423Z,157.40
2022-08-20T11:03:39.411Z,77.20
2022-08-20T11:04:39.529Z,161.80
2022-08-20T11:05:39.403Z,80.30
2022-08-20T11:06:39.373Z,162.20
2022-08-20T11:07:50.031Z,111.00
2022-08-20T11:08:40.359Z,85.50
2022-08-20T11:09:39.335Z,47.70
2022-08-20T11:10:39.340Z,85.40
2022-08-20T11:11:39.328Z,161.50
2022-08-20T11:12:39.296Z,65.30
2022-08-20T11:13:39.299Z,186.80
2022-08-20T11:14:39.267Z,125.20
2022-08-20T11:15:39.288Z,90.20
2022-08-20T11:16:39.297Z,147.30
2022-08-20T11:17:39.236Z,200.20
2022-08-20T11:18:40.983Z,139.00
2022-08-20T11:19:39.222Z,50.90
2022-08-20T11:20:39.189Z,72.60
2022-08-20T11:21:39.290Z,66.00
2022-08-20T11:22:39.175Z,59.50
2022-08-20T11:23:39.171Z,234.50
2022-08-20T11:24:39.142Z,305.00
2022-08-20T11:25:39.143Z,337.40
2022-08-20T11:26:39.112Z,170.40
2022-08-20T11:27:39.146Z,55.70
2022-08-20T11:28:39.096Z,147.00
2022-08-20T11:29:39.072Z,259.70
2022-08-20T11:30:39.067Z,149.10
2022-08-20T11:31:39.065Z,156.30
2022-08-20T11:32:39.028Z,85.60
2022-08-20T11:33:39.039Z,81.60
2022-08-20T11:34:39.005Z,183.70
2022-08-20T11:35:43.443Z,81.20
2022-08-20T11:36:39.990Z,106.90
2022-08-20T11:37:38.980Z,56.20
2022-08-20T11:38:38.946Z,147.00
2022-08-20T11:39:41.836Z,104.00
2022-08-20T11:40:38.933Z,126.80
2022-08-20T11:41:38.909Z,129.80
2022-08-20T11:42:53.248Z,188.30
2022-08-20T11:43:40.013Z,253.40
2022-08-20T11:44:38.869Z,83.70
2022-08-20T11:45:38.873Z,113.70
2022-08-20T11:46:38.840Z,177.70
2022-08-20T11:47:38.832Z,144.00
2022-08-20T11:48:38.825Z,157.10
2022-08-20T11:49:38.832Z,235.50
2022-08-20T11:50:38.813Z,177.40
2022-08-20T11:51:49.122Z,157.40
2022-08-20T11:52:39.763Z,255.00
2022-08-20T11:53:38.744Z,101.80
2022-08-20T11:54:38.756Z,249.70
2022-08-20T11:55:38.909Z,135.40
2022-08-20T11:56:38.713Z,61.90
2022-08-20T11:57:39.709Z,98.50
2022-08-20T11:58:38.686Z,122.10
2022-08-20T11:59:38.666Z,56.70
2022-08-20T12:00:38.676Z,202.90
2022-08-20T12:01:38.638Z,96.50
2022-08-20T12:02:38.660Z,103.60
2022-08-20T12:03:38.623Z,62.60
2022-08-20T12:04:38.609Z,85.30
2022-08-20T12:05:38.614Z,104.10
2022-08-20T12:06:38.580Z,217.70
2022-08-20T12:07:38.561Z,72.00
2022-08-20T12:08:38.573Z,71.50
2022-08-20T12:09:39.903Z,140.90
2022-08-20T12:10:39.644Z,76.10
2022-08-20T12:11:38.522Z,118.00
2022-08-20T12:12:38.516Z,133.20
2022-08-20T12:13:48.214Z,79.40
2022-08-20T12:14:39.495Z,106.10
2022-08-20T12:15:38.468Z,141.30
2022-08-20T12:16:38.485Z,60.50
2022-08-20T12:17:38.448Z,131.30
2022-08-20T12:18:38.427Z,302.10
2022-08-20T12:19:38.406Z,158.60
2022-08-20T12:20:38.418Z,65.90
2022-08-20T12:21:38.387Z,121.40
2022-08-20T12:22:38.500Z,143.80
2022-08-20T12:23:38.371Z,127.20
2022-08-20T12:24:38.349Z,253.80
2022-08-20T12:25:38.329Z,140.00
2022-08-20T12:26:38.341Z,94.10
2022-08-20T12:27:38.313Z,386.00
2022-08-20T12:28:38.306Z,218.00
2022-08-20T12:29:38.296Z,202.40
2022-08-20T12:30:38.270Z,127.90
2022-08-20T12:31:38.251Z,195.90
2022-08-20T12:32:38.266Z,135.10
2022-08-20T12:33:38.232Z,115.60
2022-08-20T12:34:38.235Z,265.50
2022-08-20T12:35:38.217Z,97.00
2022-08-20T12:36:38.194Z,126.90
2022-08-20T12:37:38.188Z,117.50
2022-08-20T12:38:38.275Z,180.00
2022-08-20T12:40:32.000Z,198.80